Nearby METAR Reports

 

EBAW - Antwerp/Deurne, Belgium
Distance from station: ZZO 9km
Ververst: 22/01/2022 05:50
Zwaar bewolkt
Zwaar bewolkt
 Wind van WZW
Wind: WZW 9 km/h
Temperatuur: 5°C
Gevoelstemp.: 3°C
Dauwpunt: 3°C
Vochtigheid: 87%
Barometer: 1034 hPa
Clouds: Zwaar bewolkt
Visibility: 9 km
Cloud details: Zwaar bewolkt 610 m
2022/01/22 04:50 EBAW 220450Z AUTO 25005KT 9000 // OVC020/// 05/03 Q1034
EHWO - Woensdrecht Rnla, Netherlands
Distance from station: NNW 20km
Ververst: 22/01/2022 05:55
Mist, Zwaar bewolkt
Mist, Zwaar bewolkt
 Wind van W
Wind: W 11 km/h
Temperatuur: 5°C
Gevoelstemp.: 2°C
Dauwpunt: 4°C
Vochtigheid: 93%
Barometer: 1034 hPa
Overzicht: Mist
Clouds: Zwaar bewolkt
Visibility: 9 km
Cloud details: Meestal bewolkt 549 m
Zwaar bewolkt 640 m
2022/01/22 04:55 EHWO 220455Z AUTO 26006KT 240V300 9000 BR BKN018 OVC021 05/04 Q1034 WHT
 
EBBR - Brussels Nationa, Belgium
Distance from station: Z 43km
Ververst: 22/01/2022 05:50
Meestal bewolkt
Meestal bewolkt
 Wind van W
Wind: W 9 km/h
Temperatuur: 5°C
Gevoelstemp.: 3°C
Dauwpunt: 2°C
Vochtigheid: 81%
Barometer: 1034 hPa
Clouds: Meestal bewolkt
Visibility: 10 km
Cloud details: Meestal bewolkt 610 m
2022/01/22 04:50 EBBR 220450Z 27005KT 9999 BKN020 05/02 Q1034 NOSIG
EHGR - Gilze-Rijen Rnla, Netherlands
Distance from station: NO 47km
Ververst: 22/01/2022 05:55
Mist, Zwaar bewolkt
Mist, Zwaar bewolkt
 Wind van W
Wind: W 11 km/h
Temperatuur: 5°C
Gevoelstemp.: 2°C
Dauwpunt: 4°C
Vochtigheid: 93%
Barometer: 1033 hPa
Overzicht: Mist
Clouds: Zwaar bewolkt
Visibility: 5 km
Cloud details: Meestal bewolkt 488 m
Zwaar bewolkt 579 m
2022/01/22 04:55 EHGR 220455Z AUTO 27006KT 5000 BR BKN016 OVC019 05/04 Q1033 WHT
 
EBDT - Schaffen, Belgium
Distance from station: OZO 54km
Ververst: 22/01/2022 05:55
Zwaar bewolkt
Zwaar bewolkt
 Wind van W
Wind: W 13 km/h
Temperatuur: 4°C
Gevoelstemp.: 1°C
Dauwpunt: 2°C
Vochtigheid: 87%
Barometer: 1034 hPa
Clouds: Zwaar bewolkt
Visibility: 10 km
Cloud details: Zwaar bewolkt 579 m
2022/01/22 04:55 EBDT 220455Z AUTO 27007KT 9999 OVC019/// 04/02 Q1034 WHT
EHFS - Vlissingen, Netherlands
Distance from station: WNW 60km
Ververst: 22/01/2022 05:55
Zwaar bewolkt
Zwaar bewolkt
 Wind van W
Wind: W 13 km/h
Temperatuur: 6°C
Gevoelstemp.: 3°C
Dauwpunt: 4°C
Vochtigheid: 87%
Barometer: 1034 hPa
Clouds: Zwaar bewolkt
Visibility: 10 km
Cloud details: Zwaar bewolkt 488 m
2022/01/22 04:55 EHFS 220455Z AUTO 28007KT 9999 OVC016/// 06/04 Q1034
 
EBBE - Beauvechain (baf, Belgium
Distance from station: ZZO 64km
Ververst: 22/01/2022 05:55
Zwaar bewolkt
Zwaar bewolkt
 Wind van WZW
Wind: WZW 9 km/h
Temperatuur: 3°C
Gevoelstemp.: 0°C
Dauwpunt: 2°C
Vochtigheid: 93%
Barometer: 1034 hPa
Clouds: Zwaar bewolkt
Visibility: 7 km
Cloud details: Few Clouds 366 m
Zwaar bewolkt 549 m
2022/01/22 04:55 EBBE 220455Z AUTO 24005KT 7000 FEW012/// OVC018/// 03/02 Q1034 WHT
EHEH - Eindhoven Rnlafb, Netherlands
Distance from station: ONO 69km
Ververst: 22/01/2022 05:55
Mist, Meestal bewolkt
Mist, Meestal bewolkt
 Wind van WZW
Wind: WZW 11 km/h
Temperatuur: 5°C
Gevoelstemp.: 2°C
Dauwpunt: 4°C
Vochtigheid: 93%
Barometer: 1033 hPa
Overzicht: Mist
Clouds: Meestal bewolkt
Visibility: 5 km
Cloud details: Few Clouds 305 m
Gedeeltelijk bewolkt 488 m
Meestal bewolkt 579 m
2022/01/22 04:55 EHEH 220455Z AUTO 25006KT 220V290 5000 BR FEW010 SCT016 BKN019 05/04 Q1033 WHT
 
EBBL - Kleine-Brogel(Ba, Belgium
Distance from station: O 74km
Ververst: 22/01/2022 05:55
Mist, Zwaar bewolkt
Mist, Zwaar bewolkt
 Wind van WZW
Wind: WZW 9 km/h
Temperatuur: 4°C
Gevoelstemp.: 2°C
Dauwpunt: 3°C
Vochtigheid: 93%
Barometer: 1034 hPa
Overzicht: Mist
Clouds: Zwaar bewolkt
Visibility: 3 km
Cloud details: Zwaar bewolkt 305 m
2022/01/22 04:55 EBBL 220455Z AUTO 25005KT 3300 BR OVC010/// 04/03 Q1034 YLO
EHRD - Rotterdam Airpor, Netherlands
Distance from station: N 75km
Ververst: 22/01/2022 05:55
Zwaar bewolkt
Zwaar bewolkt
 Wind van WNW
Wind: WNW 13 km/h
Temperatuur: 7°C
Gevoelstemp.: 5°C
Dauwpunt: 5°C
Vochtigheid: 87%
Barometer: 1034 hPa
Clouds: Zwaar bewolkt
Visibility: 10 km
Cloud details: Zwaar bewolkt 549 m
2022/01/22 04:55 EHRD 220455Z AUTO 29007KT 260V320 9999 OVC018 07/05 Q1034 TEMPO 7000 -DZ BKN012
 
EHSC - Goeree Le Sea, Netherlands
Distance from station: NW 89km
Ververst: 22/01/2022 05:55

 Wind van NW
Wind: NW 15 km/h
Temperatuur: 7°C
Gevoelstemp.: 4°C
Dauwpunt: 5°C
Vochtigheid: 87%
Barometer: 1034 hPa
Visibility: 10 km
2022/01/22 04:55 EHSC 220455Z AUTO 32008KT 9999 ///////// 07/05 Q1034 W07/H14
EBCI - Charleroi/Gossel, Belgium
Distance from station: Z 90km
Ververst: 22/01/2022 05:50
Meestal bewolkt
Meestal bewolkt
 Wind van W
Wind: W 9 km/h
Temperatuur: 3°C
Gevoelstemp.: 0°C
Dauwpunt: 1°C
Vochtigheid: 87%
Barometer: 1034 hPa
Clouds: Meestal bewolkt
Visibility: 6 km
Cloud details: Meestal bewolkt 244 m
2022/01/22 04:50 EBCI 220450Z 27005KT 6000 BKN008 03/01 Q1034 BECMG 4000 BR
 
EBCV - Chievres Ab, Belgium
Distance from station: ZZW 90km
Ververst: 22/01/2022 05:55
Zwaar bewolkt
Zwaar bewolkt
 Wind van W
Wind: W 9 km/h
Temperatuur: 4°C
Gevoelstemp.: 2°C
Dauwpunt: 3°C
Vochtigheid: 93%
Barometer: 1035 hPa
Clouds: Zwaar bewolkt
Visibility: 5 km
Cloud details: Zwaar bewolkt 610 m
2022/01/22 04:55 EBCV 220455Z AUTO 27005KT 5000 OVC020/// 04/03 Q1035 WHT
EHVK - Volkel Rnlafb, Netherlands
Distance from station: ONO 97km
Ververst: 22/01/2022 05:55
Mist, Meestal bewolkt
Mist, Meestal bewolkt
 Wind van WZW
Wind: WZW 7 km/h
Temperatuur: 5°C
Gevoelstemp.: 3°C
Dauwpunt: 5°C
Vochtigheid: 100%
Barometer: 1033 hPa
Overzicht: Mist
Clouds: Meestal bewolkt
Visibility: 3 km
Cloud details: Few Clouds 91 m
Meestal bewolkt 122 m
Meestal bewolkt 183 m
2022/01/22 04:55 EHVK 220455Z AUTO 25004KT 230V290 3100 BR FEW003 BKN004 BKN006 05/05 Q1033 YLO
 
EBLG - Bierset/Liege (c, Belgium
Distance from station: ZO 102km
Ververst: 22/01/2022 05:50
Meestal bewolkt
Meestal bewolkt
 Wind van W
Wind: W 9 km/h
Temperatuur: 3°C
Gevoelstemp.: 0°C
Dauwpunt: 2°C
Vochtigheid: 93%
Barometer: 1034 hPa
Clouds: Meestal bewolkt
Visibility: 8 km
Cloud details: Gedeeltelijk bewolkt 396 m
Meestal bewolkt 732 m
2022/01/22 04:50 EBLG 220450Z 28005KT 8000 SCT013 BKN024 03/02 Q1034 NOSIG
EHBK - Zuid-Limburg/Bee, Netherlands
Distance from station: OZO 102km
Ververst: 22/01/2022 05:55
Zwaar bewolkt
Zwaar bewolkt
 Wind van W
Wind: W 7 km/h
Temperatuur: 4°C
Gevoelstemp.: 2°C
Dauwpunt: 3°C
Vochtigheid: 93%
Barometer: 1033 hPa
Clouds: Zwaar bewolkt
Visibility: 6 km
Cloud details: Few Clouds 91 m
Gedeeltelijk bewolkt 152 m
Zwaar bewolkt 335 m
2022/01/22 04:55 EHBK 220455Z AUTO 27004KT 220V320 6000 FEW003 SCT005 OVC011 04/03 Q1033 BECMG 4000 BR -DZ BKN008
 
EBOS - Oostende Airport, Belgium
Distance from station: W 108km
Ververst: 22/01/2022 05:50
Meestal bewolkt
Meestal bewolkt
 Wind van NW
Wind: NW 11 km/h
Temperatuur: 5°C
Gevoelstemp.: 2°C
Dauwpunt: 3°C
Vochtigheid: 87%
Barometer: 1035 hPa
Clouds: Meestal bewolkt
Visibility: 10 km
Cloud details: Meestal bewolkt 335 m
2022/01/22 04:50 EBOS 220450Z 31006KT 9999 BKN011 05/03 Q1035 NOSIG
EHSA - Euro Platform, Netherlands
Distance from station: NW 112km
Ververst: 22/01/2022 05:55

 Wind van NW
Wind: NW 17 km/h
Temperatuur: 7°C
Gevoelstemp.: 4°C
Dauwpunt: 5°C
Vochtigheid: 87%
Barometer: 1034 hPa
Visibility: 10 km
2022/01/22 04:55 EHSA 220455Z AUTO 31009KT 9999 ///////// 07/05 Q1034 W08/H15
 
EHAM - Amsterdam/Schiph, Netherlands
Distance from station: NNO 118km
Ververst: 22/01/2022 05:55
Meestal bewolkt
Meestal bewolkt
 Wind van NW
Wind: NW 9 km/h
Temperatuur: 7°C
Gevoelstemp.: 6°C
Dauwpunt: 5°C
Vochtigheid: 87%
Barometer: 1033 hPa
Clouds: Meestal bewolkt
Visibility: 10 km
Cloud details: Few Clouds 396 m
Meestal bewolkt 488 m
2022/01/22 04:55 EHAM 220455Z 31005KT 9999 FEW013 BKN016 07/05 Q1033 TEMPO 7000 -DZ BKN013
ETNG - Geilenkirchen(Na, Germany
Distance from station: OZO 118km
Ververst: 21/01/2022 19:50
NOT Current
Meestal bewolkt
Meestal bewolkt
 Wind van W
Wind: W 19 km/h
Temperatuur: 5°C
Gevoelstemp.: 1°C
Dauwpunt: 3°C
Vochtigheid: 87%
Barometer: 1034 hPa
Clouds: Meestal bewolkt
Visibility: 10 km
Cloud details: Few Clouds 427 m
Meestal bewolkt 1158 m
2022/01/21 18:50 ETNG 211850Z 28010KT 9999 FEW014 BKN038 05/03 Q1034